sensor_id;sensor_type;location;lat;lon;timestamp;P1;durP1;ratioP1;P2;durP2;ratioP2
7383;SDS011;3733;47.994;8.820;2023-12-20T00:02:11;3.50;;;3.20;;
7383;SDS011;3733;47.994;8.820;2023-12-20T00:04:36;3.83;;;2.90;;
7383;SDS011;3733;47.994;8.820;2023-12-20T00:07:02;3.17;;;2.80;;
7383;SDS011;3733;47.994;8.820;2023-12-20T00:09:28;5.33;;;2.73;;
7383;SDS011;3733;47.994;8.820;2023-12-20T00:11:53;2.83;;;2.63;;
7383;SDS011;3733;47.994;8.820;2023-12-20T00:14:19;3.43;;;2.40;;
7383;SDS011;3733;47.994;8.820;2023-12-20T00:16:45;2.97;;;2.67;;
7383;SDS011;3733;47.994;8.820;2023-12-20T00:19:10;2.70;;;2.50;;
7383;SDS011;3733;47.994;8.820;2023-12-20T00:21:36;2.60;;;2.40;;
7383;SDS011;3733;47.994;8.820;2023-12-20T00:24:02;2.77;;;2.57;;
7383;SDS011;3733;47.994;8.820;2023-12-20T00:26:27;2.63;;;2.43;;
7383;SDS011;3733;47.994;8.820;2023-12-20T00:28:53;2.83;;;2.47;;
7383;SDS011;3733;47.994;8.820;2023-12-20T00:31:18;2.60;;;2.40;;
7383;SDS011;3733;47.994;8.820;2023-12-20T00:33:44;2.40;;;2.20;;
7383;SDS011;3733;47.994;8.820;2023-12-20T00:36:12;2.20;;;2.00;;
7383;SDS011;3733;47.994;8.820;2023-12-20T00:38:37;2.30;;;2.10;;
7383;SDS011;3733;47.994;8.820;2023-12-20T00:41:03;2.40;;;2.17;;
7383;SDS011;3733;47.994;8.820;2023-12-20T00:43:28;2.80;;;2.30;;
7383;SDS011;3733;47.994;8.820;2023-12-20T00:45:54;2.03;;;1.83;;
7383;SDS011;3733;47.994;8.820;2023-12-20T00:48:20;2.40;;;2.10;;
7383;SDS011;3733;47.994;8.820;2023-12-20T00:50:46;2.37;;;2.17;;
7383;SDS011;3733;47.994;8.820;2023-12-20T00:53:12;3.00;;;2.03;;
7383;SDS011;3733;47.994;8.820;2023-12-20T00:55:37;2.20;;;2.00;;
7383;SDS011;3733;47.994;8.820;2023-12-20T00:58:03;2.70;;;2.20;;
7383;SDS011;3733;47.994;8.820;2023-12-20T01:00:28;2.10;;;2.00;;
7383;SDS011;3733;47.994;8.820;2023-12-20T01:02:54;2.43;;;2.23;;
7383;SDS011;3733;47.994;8.820;2023-12-20T01:05:20;1.70;;;1.60;;
7383;SDS011;3733;47.994;8.820;2023-12-20T01:07:48;2.07;;;1.90;;
7383;SDS011;3733;47.994;8.820;2023-12-20T01:10:14;4.00;;;1.83;;
7383;SDS011;3733;47.994;8.820;2023-12-20T01:12:40;2.60;;;1.83;;
7383;SDS011;3733;47.994;8.820;2023-12-20T01:15:05;2.03;;;1.93;;
7383;SDS011;3733;47.994;8.820;2023-12-20T01:17:31;1.67;;;1.57;;
7383;SDS011;3733;47.994;8.820;2023-12-20T01:19:57;2.13;;;1.83;;
7383;SDS011;3733;47.994;8.820;2023-12-20T01:22:23;2.40;;;1.70;;
7383;SDS011;3733;47.994;8.820;2023-12-20T01:24:48;2.50;;;1.47;;
7383;SDS011;3733;47.994;8.820;2023-12-20T01:27:14;2.90;;;1.60;;
7383;SDS011;3733;47.994;8.820;2023-12-20T01:29:40;1.70;;;1.60;;
7383;SDS011;3733;47.994;8.820;2023-12-20T01:32:05;1.63;;;1.50;;
7383;SDS011;3733;47.994;8.820;2023-12-20T01:34:31;1.77;;;1.60;;
7383;SDS011;3733;47.994;8.820;2023-12-20T01:36:57;2.00;;;1.70;;
7383;SDS011;3733;47.994;8.820;2023-12-20T01:39:22;2.00;;;1.70;;
7383;SDS011;3733;47.994;8.820;2023-12-20T01:41:48;1.70;;;1.60;;
7383;SDS011;3733;47.994;8.820;2023-12-20T01:44:14;1.77;;;1.67;;
7383;SDS011;3733;47.994;8.820;2023-12-20T01:46:39;1.87;;;1.77;;
7383;SDS011;3733;47.994;8.820;2023-12-20T01:49:06;1.93;;;1.73;;
7383;SDS011;3733;47.994;8.820;2023-12-20T01:51:31;1.93;;;1.80;;
7383;SDS011;3733;47.994;8.820;2023-12-20T01:53:58;1.60;;;1.50;;
7383;SDS011;3733;47.994;8.820;2023-12-20T01:56:28;2.43;;;1.70;;
7383;SDS011;3733;47.994;8.820;2023-12-20T01:58:54;1.50;;;1.40;;
7383;SDS011;3733;47.994;8.820;2023-12-20T02:01:21;2.37;;;1.70;;
7383;SDS011;3733;47.994;8.820;2023-12-20T02:03:46;1.50;;;1.40;;
7383;SDS011;3733;47.994;8.820;2023-12-20T02:06:12;1.80;;;1.70;;
7383;SDS011;3733;47.994;8.820;2023-12-20T02:08:38;2.10;;;1.90;;
7383;SDS011;3733;47.994;8.820;2023-12-20T02:11:04;2.17;;;1.97;;
7383;SDS011;3733;47.994;8.820;2023-12-20T02:13:30;1.77;;;1.63;;
7383;SDS011;3733;47.994;8.820;2023-12-20T02:15:56;1.70;;;1.60;;
7383;SDS011;3733;47.994;8.820;2023-12-20T02:18:22;2.37;;;1.53;;
7383;SDS011;3733;47.994;8.820;2023-12-20T02:20:48;1.90;;;1.53;;
7383;SDS011;3733;47.994;8.820;2023-12-20T02:23:13;3.57;;;1.83;;
7383;SDS011;3733;47.994;8.820;2023-12-20T02:25:39;1.87;;;1.73;;
7383;SDS011;3733;47.994;8.820;2023-12-20T02:28:04;2.00;;;1.70;;
7383;SDS011;3733;47.994;8.820;2023-12-20T02:30:30;1.73;;;1.53;;
7383;SDS011;3733;47.994;8.820;2023-12-20T02:32:56;2.10;;;1.73;;
7383;SDS011;3733;47.994;8.820;2023-12-20T02:35:24;3.53;;;1.60;;
7383;SDS011;3733;47.994;8.820;2023-12-20T02:37:50;1.50;;;1.40;;
7383;SDS011;3733;47.994;8.820;2023-12-20T02:40:15;1.90;;;1.53;;
7383;SDS011;3733;47.994;8.820;2023-12-20T02:42:41;1.73;;;1.63;;
7383;SDS011;3733;47.994;8.820;2023-12-20T02:45:07;1.70;;;1.60;;
7383;SDS011;3733;47.994;8.820;2023-12-20T02:47:33;2.00;;;1.90;;
7383;SDS011;3733;47.994;8.820;2023-12-20T02:49:58;1.90;;;1.53;;
7383;SDS011;3733;47.994;8.820;2023-12-20T02:52:24;3.10;;;1.80;;
7383;SDS011;3733;47.994;8.820;2023-12-20T02:54:50;1.70;;;1.60;;
7383;SDS011;3733;47.994;8.820;2023-12-20T02:57:16;1.60;;;1.50;;
7383;SDS011;3733;47.994;8.820;2023-12-20T02:59:42;1.60;;;1.50;;
7383;SDS011;3733;47.994;8.820;2023-12-20T03:02:07;2.03;;;1.83;;
7383;SDS011;3733;47.994;8.820;2023-12-20T03:04:33;1.43;;;1.33;;
7383;SDS011;3733;47.994;8.820;2023-12-20T03:06:58;1.93;;;1.33;;
7383;SDS011;3733;47.994;8.820;2023-12-20T03:09:24;1.63;;;1.53;;
7383;SDS011;3733;47.994;8.820;2023-12-20T03:11:49;1.63;;;1.53;;
7383;SDS011;3733;47.994;8.820;2023-12-20T03:14:15;1.33;;;1.23;;
7383;SDS011;3733;47.994;8.820;2023-12-20T03:16:41;1.27;;;1.23;;
7383;SDS011;3733;47.994;8.820;2023-12-20T03:19:06;1.73;;;1.63;;
7383;SDS011;3733;47.994;8.820;2023-12-20T03:21:32;1.40;;;1.30;;
7383;SDS011;3733;47.994;8.820;2023-12-20T03:23:57;1.30;;;1.20;;
7383;SDS011;3733;47.994;8.820;2023-12-20T03:26:23;1.53;;;1.40;;
7383;SDS011;3733;47.994;8.820;2023-12-20T03:28:48;2.33;;;1.60;;
7383;SDS011;3733;47.994;8.820;2023-12-20T03:31:14;1.33;;;1.23;;
7383;SDS011;3733;47.994;8.820;2023-12-20T03:33:40;1.50;;;1.40;;
7383;SDS011;3733;47.994;8.820;2023-12-20T03:36:05;1.20;;;1.20;;
7383;SDS011;3733;47.994;8.820;2023-12-20T03:38:31;1.43;;;1.33;;
7383;SDS011;3733;47.994;8.820;2023-12-20T03:40:56;1.20;;;1.10;;
7383;SDS011;3733;47.994;8.820;2023-12-20T03:43:22;1.60;;;1.50;;
7383;SDS011;3733;47.994;8.820;2023-12-20T03:45:48;1.20;;;1.10;;
7383;SDS011;3733;47.994;8.820;2023-12-20T03:48:13;1.43;;;1.03;;
7383;SDS011;3733;47.994;8.820;2023-12-20T03:50:39;1.23;;;1.20;;
7383;SDS011;3733;47.994;8.820;2023-12-20T03:53:04;1.30;;;1.20;;
7383;SDS011;3733;47.994;8.820;2023-12-20T03:55:30;1.40;;;1.23;;
7383;SDS011;3733;47.994;8.820;2023-12-20T03:57:55;1.10;;;1.10;;
7383;SDS011;3733;47.994;8.820;2023-12-20T04:00:21;1.50;;;1.40;;
7383;SDS011;3733;47.994;8.820;2023-12-20T04:02:47;2.13;;;1.50;;
7383;SDS011;3733;47.994;8.820;2023-12-20T04:05:12;2.13;;;1.40;;
7383;SDS011;3733;47.994;8.820;2023-12-20T04:07:38;2.37;;;1.20;;
7383;SDS011;3733;47.994;8.820;2023-12-20T04:10:04;2.60;;;1.47;;
7383;SDS011;3733;47.994;8.820;2023-12-20T04:12:30;6.00;;;1.30;;
7383;SDS011;3733;47.994;8.820;2023-12-20T04:14:56;2.90;;;1.20;;
7383;SDS011;3733;47.994;8.820;2023-12-20T04:17:22;1.33;;;1.10;;
7383;SDS011;3733;47.994;8.820;2023-12-20T04:19:48;3.60;;;1.20;;
7383;SDS011;3733;47.994;8.820;2023-12-20T04:22:14;1.33;;;1.23;;
7383;SDS011;3733;47.994;8.820;2023-12-20T04:24:39;1.27;;;1.17;;
7383;SDS011;3733;47.994;8.820;2023-12-20T04:27:07;1.20;;;1.10;;
7383;SDS011;3733;47.994;8.820;2023-12-20T04:29:33;1.10;;;1.10;;
7383;SDS011;3733;47.994;8.820;2023-12-20T04:31:59;1.57;;;1.37;;
7383;SDS011;3733;47.994;8.820;2023-12-20T04:34:25;1.33;;;1.23;;
7383;SDS011;3733;47.994;8.820;2023-12-20T04:36:50;1.63;;;1.53;;
7383;SDS011;3733;47.994;8.820;2023-12-20T04:39:16;1.07;;;1.00;;
7383;SDS011;3733;47.994;8.820;2023-12-20T04:41:42;4.20;;;1.10;;
7383;SDS011;3733;47.994;8.820;2023-12-20T04:44:07;1.70;;;1.60;;
7383;SDS011;3733;47.994;8.820;2023-12-20T04:46:33;2.10;;;1.70;;
7383;SDS011;3733;47.994;8.820;2023-12-20T04:48:58;1.43;;;1.27;;
7383;SDS011;3733;47.994;8.820;2023-12-20T04:51:24;1.73;;;1.40;;
7383;SDS011;3733;47.994;8.820;2023-12-20T04:53:49;1.27;;;1.17;;
7383;SDS011;3733;47.994;8.820;2023-12-20T04:56:15;1.43;;;1.00;;
7383;SDS011;3733;47.994;8.820;2023-12-20T04:58:42;2.83;;;1.40;;
7383;SDS011;3733;47.994;8.820;2023-12-20T05:01:08;1.20;;;1.10;;
7383;SDS011;3733;47.994;8.820;2023-12-20T05:03:34;1.30;;;1.10;;
7383;SDS011;3733;47.994;8.820;2023-12-20T05:06:00;1.77;;;1.27;;
7383;SDS011;3733;47.994;8.820;2023-12-20T05:08:26;1.10;;;1.10;;
7383;SDS011;3733;47.994;8.820;2023-12-20T05:10:53;1.30;;;1.20;;
7383;SDS011;3733;47.994;8.820;2023-12-20T05:13:19;1.00;;;1.00;;
7383;SDS011;3733;47.994;8.820;2023-12-20T05:15:45;1.50;;;1.40;;
7383;SDS011;3733;47.994;8.820;2023-12-20T05:18:11;2.90;;;1.67;;
7383;SDS011;3733;47.994;8.820;2023-12-20T05:20:37;2.10;;;1.20;;
7383;SDS011;3733;47.994;8.820;2023-12-20T05:23:03;1.30;;;1.20;;
7383;SDS011;3733;47.994;8.820;2023-12-20T05:25:29;3.30;;;1.27;;
7383;SDS011;3733;47.994;8.820;2023-12-20T05:27:55;0.90;;;0.90;;
7383;SDS011;3733;47.994;8.820;2023-12-20T05:30:21;2.43;;;1.00;;
7383;SDS011;3733;47.994;8.820;2023-12-20T05:32:46;1.73;;;1.23;;
7383;SDS011;3733;47.994;8.820;2023-12-20T05:35:12;1.20;;;1.10;;
7383;SDS011;3733;47.994;8.820;2023-12-20T05:37:38;1.80;;;1.40;;
7383;SDS011;3733;47.994;8.820;2023-12-20T05:40:04;1.40;;;1.30;;
7383;SDS011;3733;47.994;8.820;2023-12-20T05:42:30;1.47;;;1.37;;
7383;SDS011;3733;47.994;8.820;2023-12-20T05:44:55;3.17;;;1.37;;
7383;SDS011;3733;47.994;8.820;2023-12-20T05:47:21;2.93;;;1.47;;
7383;SDS011;3733;47.994;8.820;2023-12-20T05:49:46;1.20;;;1.20;;
7383;SDS011;3733;47.994;8.820;2023-12-20T05:52:12;1.07;;;0.97;;
7383;SDS011;3733;47.994;8.820;2023-12-20T05:54:38;2.37;;;1.60;;
7383;SDS011;3733;47.994;8.820;2023-12-20T05:57:03;5.90;;;1.33;;
7383;SDS011;3733;47.994;8.820;2023-12-20T05:59:29;1.50;;;1.40;;
7383;SDS011;3733;47.994;8.820;2023-12-20T06:01:55;1.37;;;1.23;;
7383;SDS011;3733;47.994;8.820;2023-12-20T06:04:20;1.97;;;1.57;;
7383;SDS011;3733;47.994;8.820;2023-12-20T06:06:46;1.73;;;1.40;;
7383;SDS011;3733;47.994;8.820;2023-12-20T06:09:12;1.37;;;1.30;;
7383;SDS011;3733;47.994;8.820;2023-12-20T06:11:37;1.30;;;1.20;;
7383;SDS011;3733;47.994;8.820;2023-12-20T06:14:03;1.90;;;1.37;;
7383;SDS011;3733;47.994;8.820;2023-12-20T06:16:28;1.60;;;1.50;;
7383;SDS011;3733;47.994;8.820;2023-12-20T06:18:54;4.03;;;2.30;;
7383;SDS011;3733;47.994;8.820;2023-12-20T06:21:20;2.10;;;1.90;;
7383;SDS011;3733;47.994;8.820;2023-12-20T06:23:46;2.10;;;1.90;;
7383;SDS011;3733;47.994;8.820;2023-12-20T06:26:11;2.70;;;1.80;;
7383;SDS011;3733;47.994;8.820;2023-12-20T06:28:37;3.73;;;2.47;;
7383;SDS011;3733;47.994;8.820;2023-12-20T06:31:02;3.73;;;2.80;;
7383;SDS011;3733;47.994;8.820;2023-12-20T06:33:28;2.90;;;2.40;;
7383;SDS011;3733;47.994;8.820;2023-12-20T06:35:56;7.70;;;1.97;;
7383;SDS011;3733;47.994;8.820;2023-12-20T06:38:22;8.07;;;3.23;;
7383;SDS011;3733;47.994;8.820;2023-12-20T06:40:48;2.50;;;2.30;;
7383;SDS011;3733;47.994;8.820;2023-12-20T06:43:13;2.37;;;2.10;;
7383;SDS011;3733;47.994;8.820;2023-12-20T06:45:39;3.57;;;2.47;;
7383;SDS011;3733;47.994;8.820;2023-12-20T06:48:05;4.10;;;2.80;;
7383;SDS011;3733;47.994;8.820;2023-12-20T06:50:31;4.27;;;2.77;;
7383;SDS011;3733;47.994;8.820;2023-12-20T06:52:57;4.67;;;2.37;;
7383;SDS011;3733;47.994;8.820;2023-12-20T06:55:22;3.73;;;2.43;;
7383;SDS011;3733;47.994;8.820;2023-12-20T06:57:48;3.70;;;2.70;;
7383;SDS011;3733;47.994;8.820;2023-12-20T07:00:14;3.27;;;2.57;;
7383;SDS011;3733;47.994;8.820;2023-12-20T07:02:40;6.70;;;3.50;;
7383;SDS011;3733;47.994;8.820;2023-12-20T07:05:05;3.73;;;3.33;;
7383;SDS011;3733;47.994;8.820;2023-12-20T07:07:31;8.50;;;4.03;;
7383;SDS011;3733;47.994;8.820;2023-12-20T07:09:57;5.97;;;3.37;;
7383;SDS011;3733;47.994;8.820;2023-12-20T07:12:22;5.50;;;3.30;;
7383;SDS011;3733;47.994;8.820;2023-12-20T07:14:48;7.10;;;4.30;;
7383;SDS011;3733;47.994;8.820;2023-12-20T07:17:14;7.90;;;4.00;;
7383;SDS011;3733;47.994;8.820;2023-12-20T07:19:40;4.93;;;4.20;;
7383;SDS011;3733;47.994;8.820;2023-12-20T07:22:07;7.60;;;4.20;;
7383;SDS011;3733;47.994;8.820;2023-12-20T07:24:32;7.47;;;3.07;;
7383;SDS011;3733;47.994;8.820;2023-12-20T07:27:01;5.67;;;3.20;;
7383;SDS011;3733;47.994;8.820;2023-12-20T07:29:27;7.37;;;4.10;;
7383;SDS011;3733;47.994;8.820;2023-12-20T07:31:53;4.10;;;2.67;;
7383;SDS011;3733;47.994;8.820;2023-12-20T07:34:19;4.03;;;3.20;;
7383;SDS011;3733;47.994;8.820;2023-12-20T07:36:46;4.90;;;3.40;;
7383;SDS011;3733;47.994;8.820;2023-12-20T07:39:12;5.63;;;4.03;;
7383;SDS011;3733;47.994;8.820;2023-12-20T07:41:37;7.30;;;3.90;;
7383;SDS011;3733;47.994;8.820;2023-12-20T07:44:04;7.10;;;3.70;;
7383;SDS011;3733;47.994;8.820;2023-12-20T07:46:30;5.63;;;3.20;;
7383;SDS011;3733;47.994;8.820;2023-12-20T07:48:55;4.50;;;3.20;;
7383;SDS011;3733;47.994;8.820;2023-12-20T07:51:21;3.90;;;3.03;;
7383;SDS011;3733;47.994;8.820;2023-12-20T07:53:47;5.90;;;3.20;;
7383;SDS011;3733;47.994;8.820;2023-12-20T07:56:16;5.80;;;3.70;;
7383;SDS011;3733;47.994;8.820;2023-12-20T07:58:42;3.97;;;3.20;;
7383;SDS011;3733;47.994;8.820;2023-12-20T08:01:08;5.77;;;3.80;;
7383;SDS011;3733;47.994;8.820;2023-12-20T08:03:34;7.37;;;6.57;;
7383;SDS011;3733;47.994;8.820;2023-12-20T08:06:00;7.40;;;5.70;;
7383;SDS011;3733;47.994;8.820;2023-12-20T08:08:25;6.80;;;4.40;;
7383;SDS011;3733;47.994;8.820;2023-12-20T08:10:51;6.30;;;3.80;;
7383;SDS011;3733;47.994;8.820;2023-12-20T08:13:17;2.83;;;2.50;;
7383;SDS011;3733;47.994;8.820;2023-12-20T08:15:42;3.17;;;2.40;;
7383;SDS011;3733;47.994;8.820;2023-12-20T08:18:08;3.43;;;2.23;;
7383;SDS011;3733;47.994;8.820;2023-12-20T08:20:33;5.80;;;2.53;;
7383;SDS011;3733;47.994;8.820;2023-12-20T08:22:59;3.60;;;3.10;;
7383;SDS011;3733;47.994;8.820;2023-12-20T08:25:25;3.23;;;2.33;;
7383;SDS011;3733;47.994;8.820;2023-12-20T08:27:51;4.43;;;2.80;;
7383;SDS011;3733;47.994;8.820;2023-12-20T08:30:16;2.40;;;2.20;;
7383;SDS011;3733;47.994;8.820;2023-12-20T08:32:45;4.60;;;2.67;;
7383;SDS011;3733;47.994;8.820;2023-12-20T08:35:11;2.60;;;2.40;;
7383;SDS011;3733;47.994;8.820;2023-12-20T08:37:36;4.80;;;2.50;;
7383;SDS011;3733;47.994;8.820;2023-12-20T08:40:02;5.40;;;3.07;;
7383;SDS011;3733;47.994;8.820;2023-12-20T08:42:28;4.90;;;3.13;;
7383;SDS011;3733;47.994;8.820;2023-12-20T08:44:56;4.73;;;2.60;;
7383;SDS011;3733;47.994;8.820;2023-12-20T08:47:23;5.20;;;3.43;;
7383;SDS011;3733;47.994;8.820;2023-12-20T08:49:49;23.03;;;8.27;;
7383;SDS011;3733;47.994;8.820;2023-12-20T08:52:15;11.13;;;5.20;;
7383;SDS011;3733;47.994;8.820;2023-12-20T08:54:40;22.40;;;9.00;;
7383;SDS011;3733;47.994;8.820;2023-12-20T08:57:06;26.17;;;9.83;;
7383;SDS011;3733;47.994;8.820;2023-12-20T08:59:32;17.67;;;7.77;;
7383;SDS011;3733;47.994;8.820;2023-12-20T09:01:58;12.20;;;6.03;;
7383;SDS011;3733;47.994;8.820;2023-12-20T09:04:23;17.07;;;9.23;;
7383;SDS011;3733;47.994;8.820;2023-12-20T09:06:49;12.90;;;5.20;;
7383;SDS011;3733;47.994;8.820;2023-12-20T09:09:15;9.37;;;5.20;;
7383;SDS011;3733;47.994;8.820;2023-12-20T09:11:41;14.60;;;7.57;;
7383;SDS011;3733;47.994;8.820;2023-12-20T09:14:07;7.00;;;4.20;;
7383;SDS011;3733;47.994;8.820;2023-12-20T09:16:32;8.23;;;4.00;;
7383;SDS011;3733;47.994;8.820;2023-12-20T09:18:58;15.00;;;7.80;;
7383;SDS011;3733;47.994;8.820;2023-12-20T09:21:24;6.90;;;3.83;;
7383;SDS011;3733;47.994;8.820;2023-12-20T09:23:49;4.30;;;3.27;;
7383;SDS011;3733;47.994;8.820;2023-12-20T09:26:15;2.90;;;2.20;;
7383;SDS011;3733;47.994;8.820;2023-12-20T09:28:40;1.53;;;1.43;;
7383;SDS011;3733;47.994;8.820;2023-12-20T09:31:06;2.13;;;1.50;;
7383;SDS011;3733;47.994;8.820;2023-12-20T09:33:35;1.63;;;1.20;;
7383;SDS011;3733;47.994;8.820;2023-12-20T09:36:00;1.37;;;1.27;;
7383;SDS011;3733;47.994;8.820;2023-12-20T09:38:26;1.37;;;1.27;;
7383;SDS011;3733;47.994;8.820;2023-12-20T09:40:51;1.70;;;1.47;;
7383;SDS011;3733;47.994;8.820;2023-12-20T09:43:19;1.80;;;1.30;;
7383;SDS011;3733;47.994;8.820;2023-12-20T09:45:46;2.40;;;1.17;;
7383;SDS011;3733;47.994;8.820;2023-12-20T09:48:13;2.70;;;1.40;;
7383;SDS011;3733;47.994;8.820;2023-12-20T09:50:40;1.50;;;1.23;;
7383;SDS011;3733;47.994;8.820;2023-12-20T09:53:08;1.10;;;1.10;;
7383;SDS011;3733;47.994;8.820;2023-12-20T09:55:35;1.60;;;1.50;;
7383;SDS011;3733;47.994;8.820;2023-12-20T09:58:01;1.70;;;1.60;;
7383;SDS011;3733;47.994;8.820;2023-12-20T10:00:27;1.60;;;1.50;;
7383;SDS011;3733;47.994;8.820;2023-12-20T10:05:26;1.70;;;1.50;;
7383;SDS011;3733;47.994;8.820;2023-12-20T10:07:56;1.70;;;1.60;;
7383;SDS011;3733;47.994;8.820;2023-12-20T10:10:22;1.57;;;1.47;;
7383;SDS011;3733;47.994;8.820;2023-12-20T10:13:01;1.20;;;1.10;;
7383;SDS011;3733;47.994;8.820;2023-12-20T10:15:34;1.20;;;1.10;;
7383;SDS011;3733;47.994;8.820;2023-12-20T10:18:02;1.10;;;1.10;;
7383;SDS011;3733;47.994;8.820;2023-12-20T10:20:28;1.07;;;1.07;;
7383;SDS011;3733;47.994;8.820;2023-12-20T10:22:55;0.90;;;0.90;;
7383;SDS011;3733;47.994;8.820;2023-12-20T10:25:21;2.97;;;1.33;;
7383;SDS011;3733;47.994;8.820;2023-12-20T10:27:47;1.50;;;1.40;;
7383;SDS011;3733;47.994;8.820;2023-12-20T10:30:14;1.10;;;1.00;;
7383;SDS011;3733;47.994;8.820;2023-12-20T10:32:40;1.00;;;1.00;;
7383;SDS011;3733;47.994;8.820;2023-12-20T10:35:05;1.43;;;1.17;;
7383;SDS011;3733;47.994;8.820;2023-12-20T10:37:34;1.33;;;1.23;;
7383;SDS011;3733;47.994;8.820;2023-12-20T10:40:01;1.27;;;1.17;;
7383;SDS011;3733;47.994;8.820;2023-12-20T10:42:29;1.93;;;1.73;;
7383;SDS011;3733;47.994;8.820;2023-12-20T10:44:55;3.90;;;2.20;;
7383;SDS011;3733;47.994;8.820;2023-12-20T10:47:21;1.53;;;1.43;;
7383;SDS011;3733;47.994;8.820;2023-12-20T10:49:49;3.10;;;1.43;;
7383;SDS011;3733;47.994;8.820;2023-12-20T10:52:17;1.70;;;1.60;;
7383;SDS011;3733;47.994;8.820;2023-12-20T10:54:43;1.40;;;1.30;;
7383;SDS011;3733;47.994;8.820;2023-12-20T10:57:10;2.07;;;1.73;;
7383;SDS011;3733;47.994;8.820;2023-12-20T10:59:36;1.80;;;1.70;;
7383;SDS011;3733;47.994;8.820;2023-12-20T11:02:06;1.70;;;1.50;;
7383;SDS011;3733;47.994;8.820;2023-12-20T11:04:40;1.80;;;1.70;;
7383;SDS011;3733;47.994;8.820;2023-12-20T11:07:23;2.13;;;1.93;;
7383;SDS011;3733;47.994;8.820;2023-12-20T11:10:01;1.77;;;1.67;;
7383;SDS011;3733;47.994;8.820;2023-12-20T11:12:59;7.57;;;3.90;;
7383;SDS011;3733;47.994;8.820;2023-12-20T11:15:34;7.10;;;3.20;;
7383;SDS011;3733;47.994;8.820;2023-12-20T11:18:01;5.13;;;2.70;;
7383;SDS011;3733;47.994;8.820;2023-12-20T11:20:38;3.33;;;2.83;;
7383;SDS011;3733;47.994;8.820;2023-12-20T11:23:05;2.73;;;2.07;;
7383;SDS011;3733;47.994;8.820;2023-12-20T11:25:48;2.80;;;1.97;;
7383;SDS011;3733;47.994;8.820;2023-12-20T11:28:20;1.70;;;1.60;;
7383;SDS011;3733;47.994;8.820;2023-12-20T11:30:49;2.20;;;2.00;;
7383;SDS011;3733;47.994;8.820;2023-12-20T11:33:23;2.17;;;1.97;;
7383;SDS011;3733;47.994;8.820;2023-12-20T11:35:50;1.53;;;1.43;;
7383;SDS011;3733;47.994;8.820;2023-12-20T11:38:16;3.53;;;2.10;;
7383;SDS011;3733;47.994;8.820;2023-12-20T11:40:42;5.93;;;2.07;;
7383;SDS011;3733;47.994;8.820;2023-12-20T11:43:08;2.97;;;1.97;;
7383;SDS011;3733;47.994;8.820;2023-12-20T11:45:34;2.27;;;2.07;;
7383;SDS011;3733;47.994;8.820;2023-12-20T11:48:03;5.60;;;1.80;;
7383;SDS011;3733;47.994;8.820;2023-12-20T11:50:29;2.10;;;1.90;;
7383;SDS011;3733;47.994;8.820;2023-12-20T11:52:55;1.70;;;1.60;;
7383;SDS011;3733;47.994;8.820;2023-12-20T11:55:22;1.87;;;1.70;;
7383;SDS011;3733;47.994;8.820;2023-12-20T11:57:51;2.10;;;1.90;;
7383;SDS011;3733;47.994;8.820;2023-12-20T12:00:17;1.70;;;1.60;;
7383;SDS011;3733;47.994;8.820;2023-12-20T12:02:43;2.23;;;2.00;;
7383;SDS011;3733;47.994;8.820;2023-12-20T12:05:19;2.33;;;1.97;;
7383;SDS011;3733;47.994;8.820;2023-12-20T12:07:45;1.80;;;1.70;;
7383;SDS011;3733;47.994;8.820;2023-12-20T12:10:10;1.80;;;1.70;;
7383;SDS011;3733;47.994;8.820;2023-12-20T12:12:36;2.13;;;1.90;;
7383;SDS011;3733;47.994;8.820;2023-12-20T12:15:02;3.30;;;2.00;;
7383;SDS011;3733;47.994;8.820;2023-12-20T12:17:28;1.90;;;1.80;;
7383;SDS011;3733;47.994;8.820;2023-12-20T12:20:01;1.80;;;1.67;;
7383;SDS011;3733;47.994;8.820;2023-12-20T12:22:28;1.63;;;1.53;;
7383;SDS011;3733;47.994;8.820;2023-12-20T12:24:54;2.17;;;1.80;;
7383;SDS011;3733;47.994;8.820;2023-12-20T12:27:19;4.37;;;1.83;;
7383;SDS011;3733;47.994;8.820;2023-12-20T12:30:04;4.90;;;1.70;;
7383;SDS011;3733;47.994;8.820;2023-12-20T12:32:32;2.17;;;1.83;;
7383;SDS011;3733;47.994;8.820;2023-12-20T12:34:58;2.63;;;1.77;;
7383;SDS011;3733;47.994;8.820;2023-12-20T12:37:23;3.90;;;2.27;;
7383;SDS011;3733;47.994;8.820;2023-12-20T12:39:49;2.43;;;1.80;;
7383;SDS011;3733;47.994;8.820;2023-12-20T12:42:15;2.27;;;1.70;;
7383;SDS011;3733;47.994;8.820;2023-12-20T12:44:40;2.30;;;2.10;;
7383;SDS011;3733;47.994;8.820;2023-12-20T12:47:06;2.70;;;2.20;;
7383;SDS011;3733;47.994;8.820;2023-12-20T12:49:33;3.30;;;2.07;;
7383;SDS011;3733;47.994;8.820;2023-12-20T12:51:58;2.57;;;1.80;;
7383;SDS011;3733;47.994;8.820;2023-12-20T12:54:24;3.73;;;2.00;;
7383;SDS011;3733;47.994;8.820;2023-12-20T12:56:49;2.70;;;2.23;;
7383;SDS011;3733;47.994;8.820;2023-12-20T12:59:15;1.70;;;1.43;;
7383;SDS011;3733;47.994;8.820;2023-12-20T13:01:41;2.23;;;2.00;;
7383;SDS011;3733;47.994;8.820;2023-12-20T13:04:07;4.77;;;2.43;;
7383;SDS011;3733;47.994;8.820;2023-12-20T13:06:36;2.40;;;1.87;;
7383;SDS011;3733;47.994;8.820;2023-12-20T13:09:03;4.30;;;1.93;;
7383;SDS011;3733;47.994;8.820;2023-12-20T13:11:29;4.27;;;1.80;;
7383;SDS011;3733;47.994;8.820;2023-12-20T13:13:56;3.23;;;2.47;;
7383;SDS011;3733;47.994;8.820;2023-12-20T13:16:22;5.13;;;2.30;;
7383;SDS011;3733;47.994;8.820;2023-12-20T13:18:49;2.00;;;1.77;;
7383;SDS011;3733;47.994;8.820;2023-12-20T13:21:15;3.47;;;2.00;;
7383;SDS011;3733;47.994;8.820;2023-12-20T13:23:41;3.13;;;1.70;;
7383;SDS011;3733;47.994;8.820;2023-12-20T13:26:07;2.03;;;1.60;;
7383;SDS011;3733;47.994;8.820;2023-12-20T13:28:33;6.00;;;1.90;;
7383;SDS011;3733;47.994;8.820;2023-12-20T13:30:58;7.67;;;2.10;;
7383;SDS011;3733;47.994;8.820;2023-12-20T13:33:24;3.20;;;2.10;;
7383;SDS011;3733;47.994;8.820;2023-12-20T13:35:50;4.93;;;1.90;;
7383;SDS011;3733;47.994;8.820;2023-12-20T13:38:16;1.80;;;1.70;;
7383;SDS011;3733;47.994;8.820;2023-12-20T13:40:42;5.30;;;2.30;;
7383;SDS011;3733;47.994;8.820;2023-12-20T13:43:08;3.10;;;1.87;;
7383;SDS011;3733;47.994;8.820;2023-12-20T13:45:35;4.30;;;2.47;;
7383;SDS011;3733;47.994;8.820;2023-12-20T13:48:01;5.00;;;1.80;;
7383;SDS011;3733;47.994;8.820;2023-12-20T13:50:26;3.03;;;1.77;;
7383;SDS011;3733;47.994;8.820;2023-12-20T13:52:52;5.17;;;2.07;;
7383;SDS011;3733;47.994;8.820;2023-12-20T13:55:17;4.60;;;2.40;;
7383;SDS011;3733;47.994;8.820;2023-12-20T13:57:47;3.73;;;2.03;;
7383;SDS011;3733;47.994;8.820;2023-12-20T14:00:13;2.17;;;1.90;;
7383;SDS011;3733;47.994;8.820;2023-12-20T14:02:40;5.70;;;2.60;;
7383;SDS011;3733;47.994;8.820;2023-12-20T14:05:06;3.73;;;1.80;;
7383;SDS011;3733;47.994;8.820;2023-12-20T14:07:32;4.17;;;2.50;;
7383;SDS011;3733;47.994;8.820;2023-12-20T14:09:58;6.70;;;2.50;;
7383;SDS011;3733;47.994;8.820;2023-12-20T14:12:24;3.70;;;1.67;;
7383;SDS011;3733;47.994;8.820;2023-12-20T14:14:50;2.93;;;1.70;;
7383;SDS011;3733;47.994;8.820;2023-12-20T14:17:16;6.50;;;2.17;;
7383;SDS011;3733;47.994;8.820;2023-12-20T14:19:43;2.40;;;2.20;;
7383;SDS011;3733;47.994;8.820;2023-12-20T14:22:08;3.77;;;2.27;;
7383;SDS011;3733;47.994;8.820;2023-12-20T14:24:35;1.70;;;1.60;;
7383;SDS011;3733;47.994;8.820;2023-12-20T14:27:01;6.00;;;2.50;;
7383;SDS011;3733;47.994;8.820;2023-12-20T14:29:26;6.73;;;2.40;;
7383;SDS011;3733;47.994;8.820;2023-12-20T14:31:52;6.33;;;2.97;;
7383;SDS011;3733;47.994;8.820;2023-12-20T14:34:18;6.40;;;2.77;;
7383;SDS011;3733;47.994;8.820;2023-12-20T14:36:43;3.27;;;1.93;;
7383;SDS011;3733;47.994;8.820;2023-12-20T14:39:09;3.70;;;1.97;;
7383;SDS011;3733;47.994;8.820;2023-12-20T14:41:38;2.40;;;1.80;;
7383;SDS011;3733;47.994;8.820;2023-12-20T14:44:05;3.87;;;2.00;;
7383;SDS011;3733;47.994;8.820;2023-12-20T14:46:30;3.00;;;1.90;;
7383;SDS011;3733;47.994;8.820;2023-12-20T14:48:56;4.73;;;2.17;;
7383;SDS011;3733;47.994;8.820;2023-12-20T14:51:21;7.63;;;2.50;;
7383;SDS011;3733;47.994;8.820;2023-12-20T14:53:47;5.40;;;2.50;;
7383;SDS011;3733;47.994;8.820;2023-12-20T14:56:13;5.33;;;2.27;;
7383;SDS011;3733;47.994;8.820;2023-12-20T14:58:39;5.27;;;2.10;;
7383;SDS011;3733;47.994;8.820;2023-12-20T15:01:05;3.60;;;1.97;;
7383;SDS011;3733;47.994;8.820;2023-12-20T15:03:33;6.20;;;3.30;;
7383;SDS011;3733;47.994;8.820;2023-12-20T15:05:59;12.07;;;2.90;;
7383;SDS011;3733;47.994;8.820;2023-12-20T15:08:25;5.00;;;2.27;;
7383;SDS011;3733;47.994;8.820;2023-12-20T15:10:51;3.50;;;2.37;;
7383;SDS011;3733;47.994;8.820;2023-12-20T15:13:17;4.70;;;2.33;;